createdAt,value
2019-04-10T00:00:55.831Z,9.79
2019-04-10T00:03:31.753Z,9.77
2019-04-10T00:05:50.740Z,9.75
2019-04-10T00:08:17.883Z,9.72
2019-04-10T00:10:44.534Z,9.71
2019-04-10T00:13:12.085Z,9.68
2019-04-10T00:15:38.777Z,9.63
2019-04-10T00:18:05.404Z,9.62
2019-04-10T00:20:32.266Z,9.59
2019-04-10T00:22:59.023Z,9.57
2019-04-10T00:25:26.523Z,9.54
2019-04-10T00:27:53.188Z,9.48
2019-04-10T00:30:20.738Z,9.47
2019-04-10T00:32:48.078Z,9.43
2019-04-10T00:35:15.071Z,9.43
2019-04-10T00:37:42.836Z,9.43
2019-04-10T00:40:09.547Z,9.44
2019-04-10T00:42:36.978Z,9.44
2019-04-10T00:45:03.952Z,9.43
2019-04-10T00:47:30.926Z,9.42
2019-04-10T00:49:57.946Z,9.39
2019-04-10T00:52:24.535Z,9.36
2019-04-10T00:54:51.132Z,9.36
2019-04-10T00:57:17.696Z,9.36
2019-04-10T00:59:44.273Z,9.38
2019-04-10T01:02:10.889Z,9.39
2019-04-10T01:04:38.195Z,9.40
2019-04-10T01:07:05.135Z,9.40
2019-04-10T01:09:31.710Z,9.41
2019-04-10T01:11:59.283Z,9.41
2019-04-10T01:14:26.053Z,9.42
2019-04-10T01:16:52.633Z,9.38
2019-04-10T01:19:19.643Z,9.34
2019-04-10T01:21:46.508Z,9.30
2019-04-10T01:24:13.222Z,9.26
2019-04-10T01:26:39.849Z,9.19
2019-04-10T01:29:06.433Z,9.15
2019-04-10T01:31:33.083Z,9.10
2019-04-10T01:33:59.644Z,9.07
2019-04-10T01:36:26.979Z,9.01
2019-04-10T01:38:53.802Z,8.98
2019-04-10T01:41:20.540Z,8.94
2019-04-10T01:43:47.193Z,8.88
2019-04-10T01:46:13.865Z,8.82
2019-04-10T01:48:40.414Z,8.76
2019-04-10T01:51:06.990Z,8.72
2019-04-10T01:53:33.652Z,8.67
2019-04-10T01:56:00.212Z,8.63
2019-04-10T01:58:27.345Z,8.57
2019-04-10T02:00:54.252Z,8.53
2019-04-10T02:03:21.033Z,8.49
2019-04-10T02:05:47.887Z,8.47
2019-04-10T02:08:17.187Z,8.46
2019-04-10T02:10:42.787Z,8.46
2019-04-10T02:13:09.464Z,8.46
2019-04-10T02:15:36.346Z,8.44
2019-04-10T02:18:03.284Z,8.40
2019-04-10T02:20:30.001Z,8.37
2019-04-10T02:22:56.575Z,8.35
2019-04-10T02:25:24.011Z,8.32
2019-04-10T02:27:50.894Z,8.28
2019-04-10T02:30:19.586Z,8.25
2019-04-10T02:32:48.002Z,8.21
2019-04-10T02:35:17.306Z,8.19
2019-04-10T02:37:43.400Z,8.18
2019-04-10T02:40:10.854Z,8.17
2019-04-10T02:42:38.720Z,8.18
2019-04-10T02:45:06.024Z,8.19
2019-04-10T02:47:32.807Z,8.20
2019-04-10T02:50:00.704Z,8.21
2019-04-10T02:52:28.377Z,8.22
2019-04-10T02:54:57.698Z,8.21
2019-04-10T02:57:25.496Z,8.20
2019-04-10T02:59:53.777Z,8.21
2019-04-10T03:02:21.959Z,8.19
2019-04-10T03:04:49.100Z,8.16
2019-04-10T03:07:15.959Z,8.12
2019-04-10T03:09:56.318Z,8.08
2019-04-10T03:12:12.996Z,8.04
2019-04-10T03:14:41.484Z,8.00
2019-04-10T03:17:08.088Z,7.97
2019-04-10T03:19:35.807Z,7.93
2019-04-10T03:22:02.430Z,7.90
2019-04-10T03:24:29.492Z,7.86
2019-04-10T03:26:56.239Z,7.84
2019-04-10T03:29:23.832Z,7.83
2019-04-10T03:31:52.960Z,7.82
2019-04-10T03:34:21.838Z,7.82
2019-04-10T03:36:47.568Z,7.81
2019-04-10T03:39:15.350Z,7.80
2019-04-10T03:41:42.256Z,7.77
2019-04-10T03:44:08.912Z,7.71
2019-04-10T03:46:38.281Z,7.69
2019-04-10T03:49:03.838Z,7.68
2019-04-10T03:51:30.408Z,7.66
2019-04-10T03:53:56.973Z,7.65
2019-04-10T03:56:23.593Z,7.65
2019-04-10T03:58:50.163Z,7.64
2019-04-10T04:01:16.728Z,7.64
2019-04-10T04:03:43.310Z,7.61
2019-04-10T04:06:11.077Z,7.56
2019-04-10T04:08:37.748Z,7.49
2019-04-10T04:11:04.902Z,7.43
2019-04-10T04:13:31.751Z,7.38
2019-04-10T04:15:58.329Z,7.37
2019-04-10T04:18:24.964Z,7.37
2019-04-10T04:20:51.570Z,7.41
2019-04-10T04:23:19.308Z,7.45
2019-04-10T04:25:46.255Z,7.48
2019-04-10T04:28:12.871Z,7.51
2019-04-10T04:30:40.422Z,7.53
2019-04-10T04:33:07.136Z,7.53
2019-04-10T04:35:34.612Z,7.54
2019-04-10T04:38:01.297Z,7.55
2019-04-10T04:40:27.978Z,7.58
2019-04-10T04:42:55.605Z,7.61
2019-04-10T04:45:22.255Z,7.63
2019-04-10T04:47:48.822Z,7.63
2019-04-10T04:50:15.704Z,7.64
2019-04-10T04:52:43.442Z,7.65
2019-04-10T04:55:10.149Z,7.68
2019-04-10T04:57:39.156Z,7.69
2019-04-10T05:00:06.115Z,7.71
2019-04-10T05:02:32.902Z,7.75
2019-04-10T05:05:00.402Z,7.77
2019-04-10T05:07:27.177Z,7.82
2019-04-10T05:09:53.788Z,7.85
2019-04-10T05:12:20.377Z,7.92
2019-04-10T05:14:48.115Z,7.99
2019-04-10T05:17:16.604Z,8.06
2019-04-10T05:19:43.087Z,8.10
2019-04-10T05:22:10.213Z,8.13
2019-04-10T05:24:36.822Z,8.16
2019-04-10T05:27:03.587Z,8.19
2019-04-10T05:29:31.170Z,8.21
2019-04-10T05:31:58.740Z,8.24
2019-04-10T05:34:25.539Z,8.26
2019-04-10T05:36:52.228Z,8.27
2019-04-10T05:39:19.096Z,8.30
2019-04-10T05:41:46.883Z,8.34
2019-04-10T05:44:13.704Z,8.37
2019-04-10T05:46:40.931Z,8.42
2019-04-10T05:49:08.416Z,8.47
2019-04-10T05:51:35.378Z,8.49
2019-04-10T05:54:02.316Z,8.52
2019-04-10T05:56:29.928Z,8.53
2019-04-10T05:58:56.750Z,8.54
2019-04-10T06:01:33.218Z,8.54
2019-04-10T06:03:52.592Z,8.53
2019-04-10T06:06:20.071Z,8.54
2019-04-10T06:08:47.090Z,8.57
2019-04-10T06:11:15.078Z,8.58
2019-04-10T06:13:42.925Z,8.58
2019-04-10T06:16:09.811Z,8.61
2019-04-10T06:18:37.473Z,8.63
2019-04-10T06:21:05.112Z,8.66
2019-04-10T06:23:31.857Z,8.68
2019-04-10T06:25:58.483Z,8.67
2019-04-10T06:28:26.200Z,8.69
2019-04-10T06:30:54.411Z,8.72
2019-04-10T06:33:22.139Z,8.72
2019-04-10T06:35:49.036Z,8.72
2019-04-10T06:38:16.801Z,8.73
2019-04-10T06:40:44.007Z,8.76
2019-04-10T06:43:10.707Z,8.81
2019-04-10T06:45:37.333Z,8.90
2019-04-10T06:48:03.907Z,9.03
2019-04-10T06:50:31.558Z,9.21
2019-04-10T06:52:58.881Z,9.40
2019-04-10T06:55:25.598Z,9.58
2019-04-10T06:57:56.308Z,9.77
2019-04-10T07:00:21.367Z,9.95
2019-04-10T07:02:48.061Z,10.16
2019-04-10T07:05:15.017Z,10.33
2019-04-10T07:07:50.690Z,10.47
2019-04-10T07:10:22.756Z,10.59
2019-04-10T07:12:39.712Z,10.67
2019-04-10T07:15:06.474Z,10.72
2019-04-10T07:17:38.380Z,10.74
2019-04-10T07:20:01.960Z,10.76
2019-04-10T07:22:28.987Z,10.76
2019-04-10T07:24:56.465Z,10.76
2019-04-10T07:27:23.694Z,10.79
2019-04-10T07:29:52.332Z,10.81
2019-04-10T07:32:19.450Z,10.85
2019-04-10T07:34:46.735Z,10.85
2019-04-10T07:37:17.732Z,10.84
2019-04-10T07:39:44.408Z,10.81
2019-04-10T07:42:10.011Z,10.77
2019-04-10T07:44:36.587Z,10.76
2019-04-10T07:49:41.838Z,10.91
2019-04-10T07:52:08.654Z,10.95
2019-04-10T07:54:35.221Z,11.04
2019-04-10T07:57:02.141Z,11.14
2019-04-10T07:59:29.225Z,11.21
2019-04-10T08:01:56.019Z,11.28
2019-04-10T08:04:22.665Z,11.31
2019-04-10T08:06:50.212Z,11.36
2019-04-10T08:09:16.860Z,11.38
2019-04-10T08:11:44.697Z,11.43
2019-04-10T08:14:12.661Z,11.46
2019-04-10T08:16:39.481Z,11.52
2019-04-10T08:19:06.180Z,11.56
2019-04-10T08:21:32.846Z,11.56
2019-04-10T08:24:00.347Z,11.54
2019-04-10T08:26:28.109Z,11.59
2019-04-10T08:28:54.875Z,11.64
2019-04-10T08:31:22.810Z,11.71
2019-04-10T08:33:50.465Z,11.77
2019-04-10T08:36:17.289Z,11.88
2019-04-10T08:38:43.912Z,12.01
2019-04-10T08:41:10.724Z,12.15
2019-04-10T08:43:37.580Z,12.30
2019-04-10T08:46:05.216Z,12.39
2019-04-10T08:48:33.037Z,12.45
2019-04-10T08:51:00.955Z,12.45
2019-04-10T08:53:28.594Z,12.43
2019-04-10T08:55:55.385Z,12.42
2019-04-10T08:58:22.959Z,12.45
2019-04-10T09:00:51.169Z,12.45
2019-04-10T09:03:18.989Z,12.47
2019-04-10T09:05:45.646Z,12.51
2019-04-10T09:08:12.836Z,12.56
2019-04-10T09:10:40.638Z,12.66
2019-04-10T09:13:08.381Z,12.78
2019-04-10T09:15:36.061Z,12.88
2019-04-10T09:18:03.967Z,13.00
2019-04-10T09:20:30.979Z,13.11
2019-04-10T09:23:15.437Z,13.21
2019-04-10T09:25:26.992Z,13.28
2019-04-10T09:27:53.968Z,13.34
2019-04-10T09:30:20.598Z,13.37
2019-04-10T09:32:47.174Z,13.39
2019-04-10T09:35:14.795Z,13.44
2019-04-10T09:37:42.071Z,13.47
2019-04-10T09:40:08.892Z,13.53
2019-04-10T09:42:35.530Z,13.60
2019-04-10T09:45:02.682Z,13.71
2019-04-10T09:47:30.334Z,13.85
2019-04-10T09:49:57.696Z,13.98
2019-04-10T09:52:24.390Z,14.12
2019-04-10T09:54:51.064Z,14.29
2019-04-10T09:57:17.898Z,14.46
2019-04-10T09:59:45.736Z,14.60
2019-04-10T10:02:13.245Z,14.76
2019-04-10T10:04:39.865Z,14.92
2019-04-10T10:07:06.443Z,15.14
2019-04-10T10:09:33.053Z,15.44
2019-04-10T10:11:59.629Z,15.73
2019-04-10T10:14:26.576Z,16.03
2019-04-10T10:16:53.306Z,16.26
2019-04-10T10:19:21.668Z,16.51
2019-04-10T10:21:48.545Z,16.72
2019-04-10T10:24:16.264Z,16.95
2019-04-10T10:26:45.027Z,17.10
2019-04-10T10:29:11.382Z,17.19
2019-04-10T10:31:38.076Z,17.15
2019-04-10T10:34:05.942Z,17.05
2019-04-10T10:36:39.348Z,16.93
2019-04-10T10:39:06.870Z,16.78
2019-04-10T10:41:29.878Z,16.56
2019-04-10T10:43:56.592Z,16.35
2019-04-10T10:46:23.166Z,16.10
2019-04-10T10:48:49.803Z,15.92
2019-04-10T10:51:16.409Z,15.74
2019-04-10T10:53:44.015Z,15.55
2019-04-10T10:56:11.845Z,15.36
2019-04-10T10:58:39.661Z,15.20
2019-04-10T11:01:07.349Z,15.13
2019-04-10T11:03:34.187Z,15.11
2019-04-10T11:06:00.753Z,15.08
2019-04-10T11:08:27.366Z,15.01
2019-04-10T11:10:56.040Z,15.03
2019-04-10T11:13:22.607Z,15.07
2019-04-10T11:15:49.972Z,15.10
2019-04-10T11:18:18.008Z,15.11
2019-04-10T11:20:44.776Z,15.19
2019-04-10T11:23:12.086Z,15.33
2019-04-10T11:25:39.918Z,15.48
2019-04-10T11:28:07.691Z,15.59
2019-04-10T11:30:34.603Z,15.66
2019-04-10T11:33:02.584Z,15.65
2019-04-10T11:35:29.371Z,15.62
2019-04-10T11:38:00.478Z,15.60
2019-04-10T11:40:26.724Z,15.63
2019-04-10T11:42:54.208Z,15.77
2019-04-10T11:45:23.025Z,16.04
2019-04-10T11:47:51.306Z,16.26
2019-04-10T11:50:18.758Z,16.41
2019-04-10T11:52:52.204Z,16.42
2019-04-10T11:57:45.878Z,16.23
2019-04-10T12:02:39.572Z,15.93
2019-04-10T12:05:11.080Z,15.79
2019-04-10T12:12:32.009Z,15.23
2019-04-10T12:14:59.671Z,15.00
2019-04-10T12:17:26.341Z,14.78
2019-04-10T12:19:52.917Z,14.55
2019-04-10T12:22:19.673Z,14.34
2019-04-10T12:24:49.647Z,14.16
2019-04-10T12:27:14.738Z,14.03
2019-04-10T12:29:42.529Z,13.95
2019-04-10T12:32:09.319Z,13.92
2019-04-10T12:34:36.211Z,13.90
2019-04-10T12:37:02.946Z,13.88
2019-04-10T12:39:30.112Z,13.82
2019-04-10T12:41:57.539Z,13.80
2019-04-10T12:44:25.440Z,13.78
2019-04-10T12:46:53.256Z,13.74
2019-04-10T12:49:20.235Z,13.69
2019-04-10T12:51:46.811Z,13.59
2019-04-10T12:54:13.386Z,13.53
2019-04-10T12:56:40.205Z,13.43
2019-04-10T12:59:07.015Z,13.34
2019-04-10T13:01:33.576Z,13.28
2019-04-10T13:04:00.151Z,13.22
2019-04-10T13:06:26.733Z,13.14
2019-04-10T13:09:04.034Z,13.04
2019-04-10T13:11:22.555Z,12.92
2019-04-10T13:13:51.208Z,12.84
2019-04-10T13:16:18.224Z,12.75
2019-04-10T13:18:44.896Z,12.63
2019-04-10T13:21:12.477Z,12.54
2019-04-10T13:23:39.683Z,12.48
2019-04-10T13:26:09.044Z,12.43
2019-04-10T13:28:35.830Z,12.41
2019-04-10T13:31:03.578Z,12.41
2019-04-10T13:33:30.991Z,12.42
2019-04-10T13:35:57.709Z,12.39
2019-04-10T13:38:30.216Z,12.36
2019-04-10T13:40:52.599Z,12.32
2019-04-10T13:43:20.020Z,12.29
2019-04-10T13:45:46.794Z,12.27
2019-04-10T13:48:14.518Z,12.30
2019-04-10T13:50:41.263Z,12.33
2019-04-10T13:53:08.013Z,12.35
2019-04-10T13:55:34.642Z,12.37
2019-04-10T13:58:01.426Z,12.39
2019-04-10T14:00:28.132Z,12.41
2019-04-10T14:02:54.753Z,12.40
2019-04-10T14:05:21.970Z,12.39
2019-04-10T14:07:49.313Z,12.36
2019-04-10T14:10:16.166Z,12.35
2019-04-10T14:12:43.005Z,12.32
2019-04-10T14:15:09.856Z,12.30
2019-04-10T14:17:37.563Z,12.27
2019-04-10T14:20:04.759Z,12.25
2019-04-10T14:22:31.584Z,12.22
2019-04-10T14:24:58.971Z,12.22
2019-04-10T14:27:25.681Z,12.20
2019-04-10T14:29:52.283Z,12.20
2019-04-10T14:32:18.869Z,12.19
2019-04-10T14:34:45.498Z,12.20
2019-04-10T14:37:12.089Z,12.22
2019-04-10T14:39:39.561Z,12.25
2019-04-10T14:42:07.009Z,12.26
2019-04-10T14:44:34.755Z,12.25
2019-04-10T14:47:02.295Z,12.24
2019-04-10T14:49:29.325Z,12.23
2019-04-10T14:51:56.794Z,12.21
2019-04-10T14:54:23.843Z,12.18
2019-04-10T14:56:50.603Z,12.17
2019-04-10T14:59:17.827Z,12.15
2019-04-10T15:01:44.428Z,12.15
2019-04-10T15:04:11.017Z,12.17
2019-04-10T15:06:37.601Z,12.19
2019-04-10T15:09:04.186Z,12.22
2019-04-10T15:11:30.879Z,12.22
2019-04-10T15:13:57.524Z,12.23
2019-04-10T15:16:25.105Z,12.23
2019-04-10T15:18:52.078Z,12.23
2019-04-10T15:21:18.718Z,12.24
2019-04-10T15:23:45.285Z,12.25
2019-04-10T15:26:11.874Z,12.22
2019-04-10T15:28:39.482Z,12.18
2019-04-10T15:31:06.775Z,12.14
2019-04-10T15:33:33.579Z,12.08
2019-04-10T15:36:00.159Z,12.05
2019-04-10T15:38:27.152Z,12.04
2019-04-10T15:40:54.800Z,12.03
2019-04-10T15:43:23.570Z,12.04
2019-04-10T15:45:50.418Z,12.02
2019-04-10T15:48:17.152Z,11.99
2019-04-10T15:50:43.750Z,11.96
2019-04-10T15:53:10.391Z,11.92
2019-04-10T15:55:38.088Z,11.92
2019-04-10T15:58:04.809Z,11.92
2019-04-10T16:00:31.414Z,11.93
2019-04-10T16:02:57.991Z,11.94
2019-04-10T16:05:25.699Z,11.98
2019-04-10T16:07:53.131Z,11.98
2019-04-10T16:10:21.044Z,12.00
2019-04-10T16:12:47.878Z,11.98
2019-04-10T16:15:15.273Z,11.95
2019-04-10T16:17:42.002Z,11.94
2019-04-10T16:20:09.198Z,11.93
2019-04-10T16:22:35.920Z,11.92
2019-04-10T16:25:03.202Z,11.89
2019-04-10T16:27:30.688Z,11.85
2019-04-10T16:29:57.331Z,11.82
2019-04-10T16:32:24.446Z,11.79
2019-04-10T16:34:51.232Z,11.76
2019-04-10T16:37:18.708Z,11.71
2019-04-10T16:39:56.692Z,11.69
2019-04-10T16:42:14.703Z,11.65
2019-04-10T16:44:42.336Z,11.62
2019-04-10T16:47:10.153Z,11.59
2019-04-10T16:49:37.173Z,11.56
2019-04-10T16:52:04.941Z,11.52
2019-04-10T16:54:31.598Z,11.48
2019-04-10T16:56:58.324Z,11.45
2019-04-10T16:59:25.578Z,11.43
2019-04-10T17:01:53.239Z,11.38
2019-04-10T17:04:19.920Z,11.35
2019-04-10T17:06:46.520Z,11.31
2019-04-10T17:09:13.094Z,11.28
2019-04-10T17:11:40.887Z,11.26
2019-04-10T17:14:07.801Z,11.24
2019-04-10T17:16:34.559Z,11.21
2019-04-10T17:19:01.427Z,11.20
2019-04-10T17:21:30.647Z,11.18
2019-04-10T17:23:56.701Z,11.17
2019-04-10T17:26:24.627Z,11.17
2019-04-10T17:28:52.397Z,11.15
2019-04-10T17:31:19.245Z,11.16
2019-04-10T17:33:46.000Z,11.15
2019-04-10T17:36:12.832Z,11.15
2019-04-10T17:38:39.449Z,11.15
2019-04-10T17:41:07.204Z,11.13
2019-04-10T17:43:35.054Z,11.12
2019-04-10T17:46:02.770Z,11.12
2019-04-10T17:48:30.686Z,11.13
2019-04-10T17:50:57.855Z,11.13
2019-04-10T17:53:25.190Z,11.13
2019-04-10T17:55:51.987Z,11.12
2019-04-10T17:58:19.200Z,11.10
2019-04-10T18:00:47.171Z,11.10
2019-04-10T18:03:17.573Z,11.07
2019-04-10T18:05:42.575Z,11.06
2019-04-10T18:08:10.561Z,11.04
2019-04-10T18:10:44.691Z,11.03
2019-04-10T18:13:05.567Z,11.03
2019-04-10T18:15:32.460Z,11.02
2019-04-10T18:17:59.731Z,11.00
2019-04-10T18:20:26.626Z,10.99
2019-04-10T18:22:53.351Z,10.98
2019-04-10T18:25:20.188Z,10.96
2019-04-10T18:27:46.910Z,10.95
2019-04-10T18:30:14.120Z,10.94
2019-04-10T18:32:40.736Z,10.94
2019-04-10T18:35:07.296Z,10.94
2019-04-10T18:37:35.224Z,10.93
2019-04-10T18:40:03.231Z,10.93
2019-04-10T18:42:30.886Z,10.94
2019-04-10T18:44:57.617Z,10.93
2019-04-10T18:47:24.981Z,10.90
2019-04-10T18:49:51.778Z,10.88
2019-04-10T18:52:19.191Z,10.86
2019-04-10T18:54:45.823Z,10.85
2019-04-10T18:57:13.590Z,10.86
2019-04-10T18:59:40.684Z,10.87
2019-04-10T19:02:07.591Z,10.87
2019-04-10T19:04:34.825Z,10.86
2019-04-10T19:07:01.867Z,10.85
2019-04-10T19:09:28.812Z,10.86
2019-04-10T19:11:56.743Z,10.86
2019-04-10T19:14:24.675Z,10.86
2019-04-10T19:16:51.462Z,10.89
2019-04-10T19:19:18.526Z,10.90
2019-04-10T19:21:46.047Z,10.91
2019-04-10T19:24:14.217Z,10.93
2019-04-10T19:26:40.911Z,10.93
2019-04-10T19:29:07.565Z,10.94
2019-04-10T19:31:36.145Z,10.92
2019-04-10T19:34:03.237Z,10.92
2019-04-10T19:36:30.029Z,10.92
2019-04-10T19:38:57.822Z,10.89
2019-04-10T19:41:31.262Z,10.89
2019-04-10T19:43:52.890Z,10.86
2019-04-10T19:46:19.495Z,10.85
2019-04-10T19:48:48.963Z,10.84
2019-04-10T19:51:15.061Z,10.83
2019-04-10T19:53:43.621Z,10.83
2019-04-10T19:56:10.984Z,10.84
2019-04-10T19:58:38.503Z,10.84
2019-04-10T20:01:05.309Z,10.86
2019-04-10T20:03:32.112Z,10.88
2019-04-10T20:05:58.734Z,10.88
2019-04-10T20:08:25.887Z,10.88
2019-04-10T20:10:52.506Z,10.85
2019-04-10T20:13:19.117Z,10.81
2019-04-10T20:15:46.751Z,10.76
2019-04-10T20:18:14.652Z,10.68
2019-04-10T20:20:41.650Z,10.64
2019-04-10T20:23:08.322Z,10.61
2019-04-10T20:25:34.907Z,10.58
2019-04-10T20:28:02.543Z,10.55
2019-04-10T20:30:30.307Z,10.53
2019-04-10T20:32:56.877Z,10.49
2019-04-10T20:35:25.060Z,10.46
2019-04-10T20:37:51.816Z,10.43
2019-04-10T20:40:19.557Z,10.42
2019-04-10T20:42:46.743Z,10.40
2019-04-10T20:45:14.354Z,10.39
2019-04-10T20:47:41.407Z,10.38
2019-04-10T20:50:08.013Z,10.36
2019-04-10T20:52:34.685Z,10.35
2019-04-10T20:55:01.534Z,10.32
2019-04-10T20:57:28.295Z,10.29
2019-04-10T20:59:55.296Z,10.28
2019-04-10T21:02:22.297Z,10.27
2019-04-10T21:04:56.573Z,10.25
2019-04-10T21:07:17.264Z,10.24
2019-04-10T21:09:43.953Z,10.20
2019-04-10T21:12:13.619Z,10.15
2019-04-10T21:14:40.373Z,10.14
2019-04-10T21:17:07.030Z,10.12
2019-04-10T21:19:33.625Z,10.11
2019-04-10T21:22:00.225Z,10.09
2019-04-10T21:24:27.453Z,10.08
2019-04-10T21:26:54.839Z,10.06
2019-04-10T21:29:21.600Z,10.02
2019-04-10T21:31:48.349Z,10.00
2019-04-10T21:34:14.978Z,9.97
2019-04-10T21:36:41.545Z,9.95
2019-04-10T21:39:09.493Z,9.93
2019-04-10T21:41:36.888Z,9.92
2019-04-10T21:44:04.351Z,9.91
2019-04-10T21:46:30.993Z,9.90
2019-04-10T21:48:57.577Z,9.92
2019-04-10T21:51:25.377Z,9.94
2019-04-10T21:53:52.045Z,9.95
2019-04-10T21:56:18.713Z,9.94
2019-04-10T21:58:46.438Z,9.95
2019-04-10T22:01:13.558Z,9.94
2019-04-10T22:03:41.463Z,9.94
2019-04-10T22:06:09.289Z,9.94
2019-04-10T22:08:37.114Z,9.97
2019-04-10T22:11:04.357Z,9.99
2019-04-10T22:13:32.249Z,9.99
2019-04-10T22:15:59.680Z,9.98
2019-04-10T22:18:27.443Z,9.96
2019-04-10T22:20:54.253Z,9.93
2019-04-10T22:23:20.997Z,9.91
2019-04-10T22:25:48.000Z,9.89
2019-04-10T22:28:14.984Z,9.87
2019-04-10T22:30:41.935Z,9.83
2019-04-10T22:33:08.769Z,9.81
2019-04-10T22:35:35.704Z,9.79
2019-04-10T22:38:02.673Z,9.76
2019-04-10T22:40:29.419Z,9.73
2019-04-10T22:42:56.171Z,9.69
2019-04-10T22:45:24.685Z,9.66
2019-04-10T22:47:52.154Z,9.63
2019-04-10T22:50:19.023Z,9.60
2019-04-10T22:52:46.931Z,9.58
2019-04-10T22:55:13.730Z,9.55
2019-04-10T22:57:41.566Z,9.52
2019-04-10T23:00:08.553Z,9.50
2019-04-10T23:02:35.437Z,9.48
2019-04-10T23:05:02.331Z,9.45
2019-04-10T23:07:30.149Z,9.44
2019-04-10T23:09:56.977Z,9.43
2019-04-10T23:12:24.465Z,9.43
2019-04-10T23:14:51.206Z,9.43
2019-04-10T23:17:18.869Z,9.42
2019-04-10T23:19:46.534Z,9.42
2019-04-10T23:22:13.469Z,9.39
2019-04-10T23:24:40.178Z,9.39
2019-04-10T23:27:06.762Z,9.36
2019-04-10T23:29:33.331Z,9.32
2019-04-10T23:31:59.903Z,9.27
2019-04-10T23:34:26.478Z,9.23
2019-04-10T23:36:54.021Z,9.18
2019-04-10T23:39:21.788Z,9.16
2019-04-10T23:41:50.919Z,9.18
2019-04-10T23:44:16.895Z,9.19
2019-04-10T23:46:43.516Z,9.20
2019-04-10T23:49:11.156Z,9.25
2019-04-10T23:51:39.002Z,9.28
2019-04-10T23:54:05.793Z,9.33
2019-04-10T23:56:32.510Z,9.38
2019-04-10T23:58:59.323Z,9.37
